sensor_id;sensor_type;location;lat;lon;timestamp;temperature;humidity
59311;DHT22;45078;51.654;21.250;2023-12-28T00:00:30;-0.50;99.90
59311;DHT22;45078;51.654;21.250;2023-12-28T00:02:55;-0.50;99.90
59311;DHT22;45078;51.654;21.250;2023-12-28T00:05:21;-0.60;99.90
59311;DHT22;45078;51.654;21.250;2023-12-28T00:07:46;-0.60;99.90
59311;DHT22;45078;51.654;21.250;2023-12-28T00:10:12;-0.50;99.90
59311;DHT22;45078;51.654;21.250;2023-12-28T00:12:38;-0.60;99.90
59311;DHT22;45078;51.654;21.250;2023-12-28T00:15:03;-0.60;99.90
59311;DHT22;45078;51.654;21.250;2023-12-28T00:17:30;-0.60;99.90
59311;DHT22;45078;51.654;21.250;2023-12-28T00:19:55;-0.60;99.90
59311;DHT22;45078;51.654;21.250;2023-12-28T00:22:21;-0.60;99.90
59311;DHT22;45078;51.654;21.250;2023-12-28T00:24:46;-0.60;99.90
59311;DHT22;45078;51.654;21.250;2023-12-28T00:27:12;-0.60;99.90
59311;DHT22;45078;51.654;21.250;2023-12-28T00:29:37;-0.60;99.90
59311;DHT22;45078;51.654;21.250;2023-12-28T00:32:06;-0.60;99.90
59311;DHT22;45078;51.654;21.250;2023-12-28T00:34:32;-0.60;99.90
59311;DHT22;45078;51.654;21.250;2023-12-28T00:36:58;-0.50;99.90
59311;DHT22;45078;51.654;21.250;2023-12-28T00:39:23;-0.60;99.90
59311;DHT22;45078;51.654;21.250;2023-12-28T00:41:49;-0.50;99.90
59311;DHT22;45078;51.654;21.250;2023-12-28T00:44:14;-0.40;99.90
59311;DHT22;45078;51.654;21.250;2023-12-28T00:46:40;-0.40;99.90
59311;DHT22;45078;51.654;21.250;2023-12-28T00:49:06;-0.40;99.90
59311;DHT22;45078;51.654;21.250;2023-12-28T00:51:31;-0.40;99.90
59311;DHT22;45078;51.654;21.250;2023-12-28T00:53:57;-0.40;99.90
59311;DHT22;45078;51.654;21.250;2023-12-28T00:56:23;-0.40;99.90
59311;DHT22;45078;51.654;21.250;2023-12-28T00:58:48;-0.40;99.90
59311;DHT22;45078;51.654;21.250;2023-12-28T01:01:14;-0.30;99.90
59311;DHT22;45078;51.654;21.250;2023-12-28T01:03:39;-0.40;99.90
59311;DHT22;45078;51.654;21.250;2023-12-28T01:06:05;-0.30;99.90
59311;DHT22;45078;51.654;21.250;2023-12-28T01:08:32;-0.20;99.90
59311;DHT22;45078;51.654;21.250;2023-12-28T01:10:59;-0.20;99.90
59311;DHT22;45078;51.654;21.250;2023-12-28T01:13:25;-0.20;99.90
59311;DHT22;45078;51.654;21.250;2023-12-28T01:15:50;-0.20;99.90
59311;DHT22;45078;51.654;21.250;2023-12-28T01:18:16;-0.20;99.90
59311;DHT22;45078;51.654;21.250;2023-12-28T01:20:42;-0.20;99.90
59311;DHT22;45078;51.654;21.250;2023-12-28T01:23:07;-0.20;99.90
59311;DHT22;45078;51.654;21.250;2023-12-28T01:25:33;-0.20;99.90
59311;DHT22;45078;51.654;21.250;2023-12-28T01:27:59;-0.20;99.90
59311;DHT22;45078;51.654;21.250;2023-12-28T01:30:25;-0.20;99.90
59311;DHT22;45078;51.654;21.250;2023-12-28T01:32:51;-0.20;99.90
59311;DHT22;45078;51.654;21.250;2023-12-28T01:35:17;-0.20;99.90
59311;DHT22;45078;51.654;21.250;2023-12-28T01:37:42;-0.20;99.90
59311;DHT22;45078;51.654;21.250;2023-12-28T01:40:08;-0.20;99.90
59311;DHT22;45078;51.654;21.250;2023-12-28T01:42:34;-0.20;99.90
59311;DHT22;45078;51.654;21.250;2023-12-28T01:45:00;-0.20;99.90
59311;DHT22;45078;51.654;21.250;2023-12-28T01:47:27;-0.20;99.90
59311;DHT22;45078;51.654;21.250;2023-12-28T01:49:54;-0.10;99.90
59311;DHT22;45078;51.654;21.250;2023-12-28T01:52:20;-0.10;99.90
59311;DHT22;45078;51.654;21.250;2023-12-28T01:54:46;-0.10;99.90
59311;DHT22;45078;51.654;21.250;2023-12-28T01:57:13;0.00;99.90
59311;DHT22;45078;51.654;21.250;2023-12-28T01:59:39;0.00;99.90
59311;DHT22;45078;51.654;21.250;2023-12-28T02:02:06;0.10;99.90
59311;DHT22;45078;51.654;21.250;2023-12-28T02:04:32;0.10;99.90
59311;DHT22;45078;51.654;21.250;2023-12-28T02:07:00;0.10;99.90
59311;DHT22;45078;51.654;21.250;2023-12-28T02:09:26;0.10;99.90
59311;DHT22;45078;51.654;21.250;2023-12-28T02:11:52;0.20;99.90
59311;DHT22;45078;51.654;21.250;2023-12-28T02:14:18;0.20;99.90
59311;DHT22;45078;51.654;21.250;2023-12-28T02:17:12;0.10;99.90
59311;DHT22;45078;51.654;21.250;2023-12-28T02:19:54;0.20;99.90
59311;DHT22;45078;51.654;21.250;2023-12-28T02:22:23;0.20;99.90
59311;DHT22;45078;51.654;21.250;2023-12-28T02:25:08;0.30;99.90
59311;DHT22;45078;51.654;21.250;2023-12-28T02:27:53;0.30;99.90
59311;DHT22;45078;51.654;21.250;2023-12-28T02:30:22;0.30;99.90
59311;DHT22;45078;51.654;21.250;2023-12-28T02:35:39;0.40;99.90
59311;DHT22;45078;51.654;21.250;2023-12-28T02:38:08;0.40;99.90
59311;DHT22;45078;51.654;21.250;2023-12-28T02:40:37;0.40;99.90
59311;DHT22;45078;51.654;21.250;2023-12-28T02:43:07;0.40;99.90
59311;DHT22;45078;51.654;21.250;2023-12-28T02:45:34;0.40;99.90
59311;DHT22;45078;51.654;21.250;2023-12-28T02:48:00;0.40;99.90
59311;DHT22;45078;51.654;21.250;2023-12-28T02:50:25;0.40;99.90
59311;DHT22;45078;51.654;21.250;2023-12-28T02:52:51;0.40;99.90
59311;DHT22;45078;51.654;21.250;2023-12-28T02:55:17;0.40;99.90
59311;DHT22;45078;51.654;21.250;2023-12-28T02:57:44;0.40;99.90
59311;DHT22;45078;51.654;21.250;2023-12-28T03:00:10;0.40;99.90
59311;DHT22;45078;51.654;21.250;2023-12-28T03:02:36;0.40;99.90
59311;DHT22;45078;51.654;21.250;2023-12-28T03:05:05;0.30;99.90
59311;DHT22;45078;51.654;21.250;2023-12-28T03:07:32;0.30;99.90
59311;DHT22;45078;51.654;21.250;2023-12-28T03:09:57;0.40;99.90
59311;DHT22;45078;51.654;21.250;2023-12-28T03:12:23;0.30;99.90
59311;DHT22;45078;51.654;21.250;2023-12-28T03:14:57;0.40;99.90
59311;DHT22;45078;51.654;21.250;2023-12-28T03:17:23;0.30;99.90
59311;DHT22;45078;51.654;21.250;2023-12-28T03:19:49;0.30;99.90
59311;DHT22;45078;51.654;21.250;2023-12-28T03:22:14;0.30;99.90
59311;DHT22;45078;51.654;21.250;2023-12-28T03:24:40;0.30;99.90
59311;DHT22;45078;51.654;21.250;2023-12-28T03:27:06;0.30;99.90
59311;DHT22;45078;51.654;21.250;2023-12-28T03:29:32;0.40;99.90
59311;DHT22;45078;51.654;21.250;2023-12-28T03:31:58;0.30;99.90
59311;DHT22;45078;51.654;21.250;2023-12-28T03:34:24;0.40;99.90
59311;DHT22;45078;51.654;21.250;2023-12-28T03:36:52;0.40;99.90
59311;DHT22;45078;51.654;21.250;2023-12-28T03:39:17;0.40;99.90
59311;DHT22;45078;51.654;21.250;2023-12-28T03:41:43;0.40;99.90
59311;DHT22;45078;51.654;21.250;2023-12-28T03:44:11;0.40;99.90
59311;DHT22;45078;51.654;21.250;2023-12-28T03:46:36;0.40;99.90
59311;DHT22;45078;51.654;21.250;2023-12-28T03:49:02;0.40;99.90
59311;DHT22;45078;51.654;21.250;2023-12-28T03:51:28;0.40;99.90
59311;DHT22;45078;51.654;21.250;2023-12-28T03:53:53;0.40;99.90
59311;DHT22;45078;51.654;21.250;2023-12-28T03:56:24;0.40;99.90
59311;DHT22;45078;51.654;21.250;2023-12-28T03:58:50;0.40;99.90
59311;DHT22;45078;51.654;21.250;2023-12-28T04:01:17;0.40;99.90
59311;DHT22;45078;51.654;21.250;2023-12-28T04:03:43;0.40;99.90
59311;DHT22;45078;51.654;21.250;2023-12-28T04:06:09;0.40;99.90
59311;DHT22;45078;51.654;21.250;2023-12-28T04:08:34;0.40;99.90
59311;DHT22;45078;51.654;21.250;2023-12-28T04:11:00;0.50;99.90
59311;DHT22;45078;51.654;21.250;2023-12-28T04:13:26;0.50;99.90
59311;DHT22;45078;51.654;21.250;2023-12-28T04:15:51;0.50;99.90
59311;DHT22;45078;51.654;21.250;2023-12-28T04:18:17;0.50;99.90
59311;DHT22;45078;51.654;21.250;2023-12-28T04:20:43;0.50;99.90
59311;DHT22;45078;51.654;21.250;2023-12-28T04:23:10;0.50;99.90
59311;DHT22;45078;51.654;21.250;2023-12-28T04:25:35;0.50;99.90
59311;DHT22;45078;51.654;21.250;2023-12-28T04:28:01;0.50;99.90
59311;DHT22;45078;51.654;21.250;2023-12-28T04:30:26;0.40;99.90
59311;DHT22;45078;51.654;21.250;2023-12-28T04:32:52;0.50;99.90
59311;DHT22;45078;51.654;21.250;2023-12-28T04:35:18;0.40;99.90
59311;DHT22;45078;51.654;21.250;2023-12-28T04:37:44;0.40;99.90
59311;DHT22;45078;51.654;21.250;2023-12-28T04:40:10;0.40;99.90
59311;DHT22;45078;51.654;21.250;2023-12-28T04:42:36;0.40;99.90
59311;DHT22;45078;51.654;21.250;2023-12-28T04:45:02;0.40;99.90
59311;DHT22;45078;51.654;21.250;2023-12-28T04:47:27;0.30;99.90
59311;DHT22;45078;51.654;21.250;2023-12-28T04:49:53;0.30;99.90
59311;DHT22;45078;51.654;21.250;2023-12-28T04:52:18;0.30;99.90
59311;DHT22;45078;51.654;21.250;2023-12-28T04:54:44;0.30;99.90
59311;DHT22;45078;51.654;21.250;2023-12-28T04:57:09;0.30;99.90
59311;DHT22;45078;51.654;21.250;2023-12-28T04:59:41;0.30;99.90
59311;DHT22;45078;51.654;21.250;2023-12-28T05:02:07;0.20;99.90
59311;DHT22;45078;51.654;21.250;2023-12-28T05:04:36;0.20;99.90
59311;DHT22;45078;51.654;21.250;2023-12-28T05:07:03;0.30;99.90
59311;DHT22;45078;51.654;21.250;2023-12-28T05:09:28;0.20;99.90
59311;DHT22;45078;51.654;21.250;2023-12-28T05:11:54;0.30;99.90
59311;DHT22;45078;51.654;21.250;2023-12-28T05:14:19;0.30;99.90
59311;DHT22;45078;51.654;21.250;2023-12-28T05:16:45;0.20;99.90
59311;DHT22;45078;51.654;21.250;2023-12-28T05:19:10;0.30;99.90
59311;DHT22;45078;51.654;21.250;2023-12-28T05:21:36;0.30;99.90
59311;DHT22;45078;51.654;21.250;2023-12-28T05:24:02;0.30;99.90
59311;DHT22;45078;51.654;21.250;2023-12-28T05:26:27;0.30;99.90
59311;DHT22;45078;51.654;21.250;2023-12-28T05:28:53;0.40;99.90
59311;DHT22;45078;51.654;21.250;2023-12-28T05:31:18;0.40;99.90
59311;DHT22;45078;51.654;21.250;2023-12-28T05:33:44;0.40;99.90
59311;DHT22;45078;51.654;21.250;2023-12-28T05:36:09;0.50;99.90
59311;DHT22;45078;51.654;21.250;2023-12-28T05:38:35;0.50;99.90
59311;DHT22;45078;51.654;21.250;2023-12-28T05:41:00;0.60;99.90
59311;DHT22;45078;51.654;21.250;2023-12-28T05:43:26;0.70;99.90
59311;DHT22;45078;51.654;21.250;2023-12-28T05:45:51;0.80;99.90
59311;DHT22;45078;51.654;21.250;2023-12-28T05:48:17;0.80;99.90
59311;DHT22;45078;51.654;21.250;2023-12-28T05:50:42;0.90;99.90
59311;DHT22;45078;51.654;21.250;2023-12-28T05:53:08;0.90;99.90
59311;DHT22;45078;51.654;21.250;2023-12-28T05:55:40;1.00;99.90
59311;DHT22;45078;51.654;21.250;2023-12-28T05:58:06;1.00;99.90
59311;DHT22;45078;51.654;21.250;2023-12-28T06:00:31;1.00;99.90
59311;DHT22;45078;51.654;21.250;2023-12-28T06:02:57;1.00;99.90
59311;DHT22;45078;51.654;21.250;2023-12-28T06:05:22;1.00;99.90
59311;DHT22;45078;51.654;21.250;2023-12-28T06:07:48;1.00;99.90
59311;DHT22;45078;51.654;21.250;2023-12-28T06:10:13;1.10;99.90
59311;DHT22;45078;51.654;21.250;2023-12-28T06:12:39;1.10;99.90
59311;DHT22;45078;51.654;21.250;2023-12-28T06:15:05;1.10;99.90
59311;DHT22;45078;51.654;21.250;2023-12-28T06:17:31;1.00;99.90
59311;DHT22;45078;51.654;21.250;2023-12-28T06:19:56;1.10;99.90
59311;DHT22;45078;51.654;21.250;2023-12-28T06:22:22;1.10;99.90
59311;DHT22;45078;51.654;21.250;2023-12-28T06:24:47;1.10;99.90
59311;DHT22;45078;51.654;21.250;2023-12-28T06:27:13;1.10;99.90
59311;DHT22;45078;51.654;21.250;2023-12-28T06:29:38;1.10;99.90
59311;DHT22;45078;51.654;21.250;2023-12-28T06:32:04;1.20;99.90
59311;DHT22;45078;51.654;21.250;2023-12-28T06:34:30;1.10;99.90
59311;DHT22;45078;51.654;21.250;2023-12-28T06:36:56;1.20;99.90
59311;DHT22;45078;51.654;21.250;2023-12-28T06:39:21;1.20;99.90
59311;DHT22;45078;51.654;21.250;2023-12-28T06:41:48;1.20;99.90
59311;DHT22;45078;51.654;21.250;2023-12-28T06:44:14;1.10;99.90
59311;DHT22;45078;51.654;21.250;2023-12-28T06:46:40;1.20;99.90
59311;DHT22;45078;51.654;21.250;2023-12-28T06:49:06;1.20;99.90
59311;DHT22;45078;51.654;21.250;2023-12-28T06:51:31;1.20;99.90
59311;DHT22;45078;51.654;21.250;2023-12-28T06:53:57;1.20;99.90
59311;DHT22;45078;51.654;21.250;2023-12-28T06:56:23;1.20;99.90
59311;DHT22;45078;51.654;21.250;2023-12-28T06:58:48;1.30;99.90
59311;DHT22;45078;51.654;21.250;2023-12-28T07:01:14;1.30;99.90
59311;DHT22;45078;51.654;21.250;2023-12-28T07:03:40;1.30;99.90
59311;DHT22;45078;51.654;21.250;2023-12-28T07:06:05;1.30;99.90
59311;DHT22;45078;51.654;21.250;2023-12-28T07:08:31;1.30;99.90
59311;DHT22;45078;51.654;21.250;2023-12-28T07:10:57;1.30;99.90
59311;DHT22;45078;51.654;21.250;2023-12-28T07:13:22;1.30;99.90
59311;DHT22;45078;51.654;21.250;2023-12-28T07:15:48;1.40;99.90
59311;DHT22;45078;51.654;21.250;2023-12-28T07:18:14;1.40;99.90
59311;DHT22;45078;51.654;21.250;2023-12-28T07:20:39;1.50;99.90
59311;DHT22;45078;51.654;21.250;2023-12-28T07:23:05;1.50;99.90
59311;DHT22;45078;51.654;21.250;2023-12-28T07:25:31;1.50;99.90
59311;DHT22;45078;51.654;21.250;2023-12-28T07:27:56;1.50;99.90
59311;DHT22;45078;51.654;21.250;2023-12-28T07:30:22;1.60;99.90
59311;DHT22;45078;51.654;21.250;2023-12-28T07:32:47;1.70;99.90
59311;DHT22;45078;51.654;21.250;2023-12-28T07:35:13;1.70;99.90
59311;DHT22;45078;51.654;21.250;2023-12-28T07:37:39;1.70;99.90
59311;DHT22;45078;51.654;21.250;2023-12-28T07:40:05;1.70;99.90
59311;DHT22;45078;51.654;21.250;2023-12-28T07:42:31;1.80;99.90
59311;DHT22;45078;51.654;21.250;2023-12-28T07:44:56;1.90;99.90
59311;DHT22;45078;51.654;21.250;2023-12-28T07:47:22;2.00;99.90
59311;DHT22;45078;51.654;21.250;2023-12-28T07:49:47;2.00;99.90
59311;DHT22;45078;51.654;21.250;2023-12-28T07:52:13;2.20;99.90
59311;DHT22;45078;51.654;21.250;2023-12-28T07:54:39;2.20;99.90
59311;DHT22;45078;51.654;21.250;2023-12-28T07:57:04;2.40;99.90
59311;DHT22;45078;51.654;21.250;2023-12-28T07:59:30;2.50;99.90
59311;DHT22;45078;51.654;21.250;2023-12-28T08:01:56;2.70;99.90
59311;DHT22;45078;51.654;21.250;2023-12-28T08:04:22;2.90;99.90
59311;DHT22;45078;51.654;21.250;2023-12-28T08:06:48;3.30;99.90
59311;DHT22;45078;51.654;21.250;2023-12-28T08:09:13;3.60;99.90
59311;DHT22;45078;51.654;21.250;2023-12-28T08:11:39;4.30;99.90
59311;DHT22;45078;51.654;21.250;2023-12-28T08:14:05;4.60;99.90
59311;DHT22;45078;51.654;21.250;2023-12-28T08:16:31;5.00;99.90
59311;DHT22;45078;51.654;21.250;2023-12-28T08:18:56;5.20;99.90
59311;DHT22;45078;51.654;21.250;2023-12-28T08:21:22;5.50;99.90
59311;DHT22;45078;51.654;21.250;2023-12-28T08:23:47;5.30;99.90
59311;DHT22;45078;51.654;21.250;2023-12-28T08:26:13;5.50;99.90
59311;DHT22;45078;51.654;21.250;2023-12-28T08:28:38;5.60;99.90
59311;DHT22;45078;51.654;21.250;2023-12-28T08:31:04;6.00;99.90
59311;DHT22;45078;51.654;21.250;2023-12-28T08:33:30;6.40;99.90
59311;DHT22;45078;51.654;21.250;2023-12-28T08:35:55;7.00;99.90
59311;DHT22;45078;51.654;21.250;2023-12-28T08:38:21;7.90;99.90
59311;DHT22;45078;51.654;21.250;2023-12-28T08:40:46;8.70;99.90
59311;DHT22;45078;51.654;21.250;2023-12-28T08:43:12;9.30;98.60
59311;DHT22;45078;51.654;21.250;2023-12-28T08:45:37;9.90;96.00
59311;DHT22;45078;51.654;21.250;2023-12-28T08:48:04;10.80;92.90
59311;DHT22;45078;51.654;21.250;2023-12-28T08:50:30;11.70;91.00
59311;DHT22;45078;51.654;21.250;2023-12-28T08:52:55;12.70;87.80
59311;DHT22;45078;51.654;21.250;2023-12-28T08:55:21;13.50;81.70
59311;DHT22;45078;51.654;21.250;2023-12-28T08:57:47;13.10;81.70
59311;DHT22;45078;51.654;21.250;2023-12-28T09:00:13;13.00;81.60
59311;DHT22;45078;51.654;21.250;2023-12-28T09:02:42;13.10;81.00
59311;DHT22;45078;51.654;21.250;2023-12-28T09:05:08;13.70;78.80
59311;DHT22;45078;51.654;21.250;2023-12-28T09:07:34;14.20;77.90
59311;DHT22;45078;51.654;21.250;2023-12-28T09:10:01;14.10;76.80
59311;DHT22;45078;51.654;21.250;2023-12-28T09:12:27;14.60;75.00
59311;DHT22;45078;51.654;21.250;2023-12-28T09:14:53;14.90;73.80
59311;DHT22;45078;51.654;21.250;2023-12-28T09:17:21;14.50;73.80
59311;DHT22;45078;51.654;21.250;2023-12-28T09:19:47;14.70;75.40
59311;DHT22;45078;51.654;21.250;2023-12-28T09:22:13;14.70;75.00
59311;DHT22;45078;51.654;21.250;2023-12-28T09:24:38;15.10;73.30
59311;DHT22;45078;51.654;21.250;2023-12-28T09:27:04;15.20;73.00
59311;DHT22;45078;51.654;21.250;2023-12-28T09:29:29;15.30;72.50
59311;DHT22;45078;51.654;21.250;2023-12-28T09:31:55;14.60;73.50
59311;DHT22;45078;51.654;21.250;2023-12-28T09:34:21;13.40;75.70
59311;DHT22;45078;51.654;21.250;2023-12-28T09:36:46;12.90;79.50
59311;DHT22;45078;51.654;21.250;2023-12-28T09:39:12;13.80;80.20
59311;DHT22;45078;51.654;21.250;2023-12-28T09:41:41;13.50;77.30
59311;DHT22;45078;51.654;21.250;2023-12-28T09:44:11;12.60;80.40
59311;DHT22;45078;51.654;21.250;2023-12-28T09:46:37;11.70;83.30
59311;DHT22;45078;51.654;21.250;2023-12-28T09:49:07;10.90;87.70
59311;DHT22;45078;51.654;21.250;2023-12-28T09:51:33;10.80;90.60
59311;DHT22;45078;51.654;21.250;2023-12-28T09:53:58;11.40;90.00
59311;DHT22;45078;51.654;21.250;2023-12-28T09:56:24;11.40;88.70
59311;DHT22;45078;51.654;21.250;2023-12-28T09:58:51;11.10;90.10
59311;DHT22;45078;51.654;21.250;2023-12-28T10:01:17;10.50;90.40
59311;DHT22;45078;51.654;21.250;2023-12-28T10:03:43;10.00;92.00
59311;DHT22;45078;51.654;21.250;2023-12-28T10:06:09;9.80;93.00
59311;DHT22;45078;51.654;21.250;2023-12-28T10:08:35;9.60;93.40
59311;DHT22;45078;51.654;21.250;2023-12-28T10:11:02;9.40;94.60
59311;DHT22;45078;51.654;21.250;2023-12-28T10:13:28;9.40;95.30
59311;DHT22;45078;51.654;21.250;2023-12-28T10:15:57;9.90;95.70
59311;DHT22;45078;51.654;21.250;2023-12-28T10:18:24;10.80;93.70
59311;DHT22;45078;51.654;21.250;2023-12-28T10:20:50;11.10;93.00
59311;DHT22;45078;51.654;21.250;2023-12-28T10:23:18;11.00;92.30
59311;DHT22;45078;51.654;21.250;2023-12-28T10:25:43;10.50;92.90
59311;DHT22;45078;51.654;21.250;2023-12-28T10:28:10;10.10;94.70
59311;DHT22;45078;51.654;21.250;2023-12-28T10:30:38;9.80;95.50
59311;DHT22;45078;51.654;21.250;2023-12-28T10:33:05;9.60;95.90
59311;DHT22;45078;51.654;21.250;2023-12-28T10:35:31;9.50;96.40
59311;DHT22;45078;51.654;21.250;2023-12-28T10:38:00;9.30;97.50
59311;DHT22;45078;51.654;21.250;2023-12-28T10:40:26;9.20;97.70
59311;DHT22;45078;51.654;21.250;2023-12-28T10:42:52;9.10;97.80
59311;DHT22;45078;51.654;21.250;2023-12-28T10:45:20;9.10;98.10
59311;DHT22;45078;51.654;21.250;2023-12-28T10:48:09;9.10;98.40
59311;DHT22;45078;51.654;21.250;2023-12-28T10:50:40;9.10;98.80
59311;DHT22;45078;51.654;21.250;2023-12-28T10:53:17;9.00;98.70
59311;DHT22;45078;51.654;21.250;2023-12-28T10:56:05;9.00;99.00
59311;DHT22;45078;51.654;21.250;2023-12-28T10:59:14;8.90;99.90
59311;DHT22;45078;51.654;21.250;2023-12-28T11:01:43;8.90;99.90
59311;DHT22;45078;51.654;21.250;2023-12-28T11:06:47;9.00;99.90
59311;DHT22;45078;51.654;21.250;2023-12-28T11:09:13;9.00;99.80
59311;DHT22;45078;51.654;21.250;2023-12-28T11:11:43;9.00;99.90
59311;DHT22;45078;51.654;21.250;2023-12-28T11:14:09;9.00;99.90
59311;DHT22;45078;51.654;21.250;2023-12-28T11:16:35;8.90;99.90
59311;DHT22;45078;51.654;21.250;2023-12-28T11:19:03;9.00;99.90
59311;DHT22;45078;51.654;21.250;2023-12-28T11:21:30;9.00;99.90
59311;DHT22;45078;51.654;21.250;2023-12-28T11:23:56;9.00;99.90
59311;DHT22;45078;51.654;21.250;2023-12-28T11:26:22;8.90;99.90
59311;DHT22;45078;51.654;21.250;2023-12-28T11:28:48;9.00;99.50
59311;DHT22;45078;51.654;21.250;2023-12-28T11:31:15;8.90;99.80
59311;DHT22;45078;51.654;21.250;2023-12-28T11:33:50;9.00;99.80
59311;DHT22;45078;51.654;21.250;2023-12-28T11:36:40;9.00;99.80
59311;DHT22;45078;51.654;21.250;2023-12-28T11:39:09;9.00;99.70
59311;DHT22;45078;51.654;21.250;2023-12-28T11:41:36;9.00;99.90
59311;DHT22;45078;51.654;21.250;2023-12-28T11:44:05;9.00;99.90
59311;DHT22;45078;51.654;21.250;2023-12-28T11:46:31;9.00;99.90
59311;DHT22;45078;51.654;21.250;2023-12-28T11:49:07;9.00;99.90
59311;DHT22;45078;51.654;21.250;2023-12-28T11:51:38;9.00;99.90
59311;DHT22;45078;51.654;21.250;2023-12-28T11:54:04;8.90;99.90
59311;DHT22;45078;51.654;21.250;2023-12-28T11:56:31;9.00;99.90
59311;DHT22;45078;51.654;21.250;2023-12-28T11:58:57;9.00;99.90
59311;DHT22;45078;51.654;21.250;2023-12-28T12:01:24;9.00;99.90
59311;DHT22;45078;51.654;21.250;2023-12-28T12:03:50;9.00;99.90
59311;DHT22;45078;51.654;21.250;2023-12-28T12:06:15;9.00;99.90
59311;DHT22;45078;51.654;21.250;2023-12-28T12:08:45;9.00;99.90
59311;DHT22;45078;51.654;21.250;2023-12-28T12:11:11;8.90;99.90
59311;DHT22;45078;51.654;21.250;2023-12-28T12:13:37;8.90;99.90
59311;DHT22;45078;51.654;21.250;2023-12-28T12:16:03;8.90;99.90
59311;DHT22;45078;51.654;21.250;2023-12-28T12:18:34;8.90;99.90
59311;DHT22;45078;51.654;21.250;2023-12-28T12:21:01;8.80;99.90
59311;DHT22;45078;51.654;21.250;2023-12-28T12:23:27;8.80;99.90
59311;DHT22;45078;51.654;21.250;2023-12-28T12:25:53;8.70;99.90
59311;DHT22;45078;51.654;21.250;2023-12-28T12:28:19;8.80;99.90
59311;DHT22;45078;51.654;21.250;2023-12-28T12:30:53;8.80;99.90
59311;DHT22;45078;51.654;21.250;2023-12-28T12:33:20;8.80;99.90
59311;DHT22;45078;51.654;21.250;2023-12-28T12:35:46;8.80;99.90
59311;DHT22;45078;51.654;21.250;2023-12-28T12:38:12;8.80;99.90
59311;DHT22;45078;51.654;21.250;2023-12-28T12:40:38;8.90;99.90
59311;DHT22;45078;51.654;21.250;2023-12-28T12:43:06;8.80;99.90
59311;DHT22;45078;51.654;21.250;2023-12-28T12:45:34;8.80;99.90
59311;DHT22;45078;51.654;21.250;2023-12-28T12:48:02;8.80;99.90
59311;DHT22;45078;51.654;21.250;2023-12-28T12:50:28;8.80;99.90
59311;DHT22;45078;51.654;21.250;2023-12-28T12:52:53;8.70;99.90
59311;DHT22;45078;51.654;21.250;2023-12-28T12:55:19;8.70;99.90
59311;DHT22;45078;51.654;21.250;2023-12-28T12:57:45;8.70;99.90
59311;DHT22;45078;51.654;21.250;2023-12-28T13:00:11;8.70;99.90
59311;DHT22;45078;51.654;21.250;2023-12-28T13:02:37;8.70;99.90
59311;DHT22;45078;51.654;21.250;2023-12-28T13:05:03;8.70;99.90
59311;DHT22;45078;51.654;21.250;2023-12-28T13:07:32;8.60;99.90
59311;DHT22;45078;51.654;21.250;2023-12-28T13:09:57;8.80;99.90
59311;DHT22;45078;51.654;21.250;2023-12-28T13:12:23;8.70;99.90
59311;DHT22;45078;51.654;21.250;2023-12-28T13:14:49;8.60;99.90
59311;DHT22;45078;51.654;21.250;2023-12-28T13:17:15;8.60;99.90
59311;DHT22;45078;51.654;21.250;2023-12-28T13:19:42;8.70;99.90
59311;DHT22;45078;51.654;21.250;2023-12-28T13:22:07;8.70;99.90
59311;DHT22;45078;51.654;21.250;2023-12-28T13:24:33;8.70;99.90
59311;DHT22;45078;51.654;21.250;2023-12-28T13:26:58;8.70;99.90
59311;DHT22;45078;51.654;21.250;2023-12-28T13:29:24;8.70;99.90
59311;DHT22;45078;51.654;21.250;2023-12-28T13:31:49;8.60;99.90
59311;DHT22;45078;51.654;21.250;2023-12-28T13:34:18;8.60;99.90
59311;DHT22;45078;51.654;21.250;2023-12-28T13:36:44;8.60;99.90
59311;DHT22;45078;51.654;21.250;2023-12-28T13:39:10;8.60;99.90
59311;DHT22;45078;51.654;21.250;2023-12-28T13:41:40;8.60;99.90
59311;DHT22;45078;51.654;21.250;2023-12-28T13:44:06;8.60;99.90
59311;DHT22;45078;51.654;21.250;2023-12-28T13:46:35;8.60;99.90
59311;DHT22;45078;51.654;21.250;2023-12-28T13:49:01;8.50;99.90
59311;DHT22;45078;51.654;21.250;2023-12-28T13:51:29;8.50;99.90
59311;DHT22;45078;51.654;21.250;2023-12-28T13:53:55;8.50;99.90
59311;DHT22;45078;51.654;21.250;2023-12-28T13:56:20;8.50;99.90
59311;DHT22;45078;51.654;21.250;2023-12-28T13:58:46;8.50;99.90
59311;DHT22;45078;51.654;21.250;2023-12-28T14:01:12;8.50;99.90
59311;DHT22;45078;51.654;21.250;2023-12-28T14:03:38;8.50;99.90
59311;DHT22;45078;51.654;21.250;2023-12-28T14:06:04;8.40;99.90
59311;DHT22;45078;51.654;21.250;2023-12-28T14:08:30;8.30;99.90
59311;DHT22;45078;51.654;21.250;2023-12-28T14:10:55;8.40;99.90
59311;DHT22;45078;51.654;21.250;2023-12-28T14:13:21;8.40;99.90
59311;DHT22;45078;51.654;21.250;2023-12-28T14:15:47;8.40;99.90
59311;DHT22;45078;51.654;21.250;2023-12-28T14:18:13;8.50;99.90
59311;DHT22;45078;51.654;21.250;2023-12-28T14:20:38;8.40;99.90
59311;DHT22;45078;51.654;21.250;2023-12-28T14:23:04;8.40;99.90
59311;DHT22;45078;51.654;21.250;2023-12-28T14:25:30;8.40;99.90
59311;DHT22;45078;51.654;21.250;2023-12-28T14:27:56;8.40;99.90
59311;DHT22;45078;51.654;21.250;2023-12-28T14:30:22;8.30;99.90
59311;DHT22;45078;51.654;21.250;2023-12-28T14:32:48;8.30;99.90
59311;DHT22;45078;51.654;21.250;2023-12-28T14:35:14;8.30;99.90
59311;DHT22;45078;51.654;21.250;2023-12-28T14:37:46;8.30;99.90
59311;DHT22;45078;51.654;21.250;2023-12-28T14:40:12;8.30;99.90
59311;DHT22;45078;51.654;21.250;2023-12-28T14:42:38;8.30;99.90
59311;DHT22;45078;51.654;21.250;2023-12-28T14:45:04;8.30;99.90
59311;DHT22;45078;51.654;21.250;2023-12-28T14:47:30;8.30;99.90
59311;DHT22;45078;51.654;21.250;2023-12-28T14:49:56;8.30;99.90
59311;DHT22;45078;51.654;21.250;2023-12-28T14:52:23;8.30;99.90
59311;DHT22;45078;51.654;21.250;2023-12-28T14:54:49;8.30;99.90
59311;DHT22;45078;51.654;21.250;2023-12-28T14:57:16;8.30;99.90
59311;DHT22;45078;51.654;21.250;2023-12-28T14:59:42;8.20;99.90
59311;DHT22;45078;51.654;21.250;2023-12-28T15:02:07;8.20;99.90
59311;DHT22;45078;51.654;21.250;2023-12-28T15:04:33;8.10;99.90
59311;DHT22;45078;51.654;21.250;2023-12-28T15:07:00;8.10;99.90
59311;DHT22;45078;51.654;21.250;2023-12-28T15:09:25;8.10;99.90
59311;DHT22;45078;51.654;21.250;2023-12-28T15:11:51;8.10;99.90
59311;DHT22;45078;51.654;21.250;2023-12-28T15:14:17;8.20;99.90
59311;DHT22;45078;51.654;21.250;2023-12-28T15:16:43;8.20;99.90
59311;DHT22;45078;51.654;21.250;2023-12-28T15:19:09;8.10;99.90
59311;DHT22;45078;51.654;21.250;2023-12-28T15:21:35;8.10;99.90
59311;DHT22;45078;51.654;21.250;2023-12-28T15:24:01;8.10;99.90
59311;DHT22;45078;51.654;21.250;2023-12-28T15:26:27;8.10;99.90
59311;DHT22;45078;51.654;21.250;2023-12-28T15:28:53;8.20;99.90